Terminal Aerodrome Forecast
Issued by NWS St Louis, MO

Home | Current Version | Previous Version | Text Only | Print | Product List | Glossary On
Versions: 1 2 3 4 5 6 7 8 9 10 11 12 13 14 15 16 17 18 19 20 21 22 23 24 25 26 27 28 29 30 31 32 33
000
FTUS43 KLSX 272323
TAFSTL
TAF
KSTL 272323Z 2800/2906 18008KT P6SM VCTS SCT040CB BKN250
     FM280400 21006KT P6SM SCT060 BKN200
     FM280900 25009KT P6SM BKN060
     FM281300 25012KT P6SM SCT120=

USA.gov is the U.S. government's official web portal to all federal, state and local government web resources and services.